Time;durP1;ratioP1;P1;durP2;ratioP2;P2;SDS_P1;SDS_P2;PMS_P1;PMS_P2;Temp;Humidity;BMP_temperature;BMP_pressure;BME280_temperature;BME280_humidity;BME280_pressure;Samples;Min_cycle;Max_cycle;Signal;HPM_P1;HPM_P2
2021/05/18 00:00:24;;;;;;;17.52;11.02;;;11.30;99.90;;;;;;4969622;28;20133;-62
2021/05/18 00:03:10;;;;;;;21.60;10.73;;;11.30;99.90;;;;;;4969509;28;20121;-64
2021/05/18 00:05:39;;;;;;;18.73;10.05;;;11.30;99.90;;;;;;4969748;28;20486;-63
2021/05/18 00:08:08;;;;;;;16.75;10.30;;;11.30;99.90;;;;;;4969800;28;20054;-63
2021/05/18 00:13:27;;;;;;;21.50;11.88;;;11.40;99.90;;;;;;4969415;28;20082;-63
2021/05/18 00:15:56;;;;;;;17.13;12.00;;;11.40;99.90;;;;;;4969445;28;20050;-63
2021/05/18 00:18:23;;;;;;;22.05;11.23;;;11.30;99.90;;;;;;4969520;28;20051;-63
2021/05/18 00:20:49;;;;;;;16.50;11.05;;;11.30;99.90;;;;;;4969755;28;20143;-63
2021/05/18 00:23:16;;;;;;;19.02;12.88;;;11.20;99.90;;;;;;4969659;28;20046;-63
2021/05/18 00:25:43;;;;;;;19.60;12.00;;;11.20;99.90;;;;;;4969065;28;20051;-63
2021/05/18 00:28:10;;;;;;;16.48;11.30;;;11.20;99.90;;;;;;4968229;28;20130;-63
2021/05/18 00:30:37;;;;;;;21.83;10.70;;;11.20;99.90;;;;;;4969285;28;20400;-63
2021/05/18 00:33:17;;;;;;;20.33;11.00;;;11.20;99.90;;;;;;4969174;28;20046;-63
2021/05/18 00:35:44;;;;;;;19.00;10.77;;;11.20;99.90;;;;;;4970672;28;20170;-63
2021/05/18 00:38:13;;;;;;;17.65;10.48;;;11.10;99.90;;;;;;4969992;28;20051;-63
2021/05/18 00:40:39;;;;;;;20.67;11.70;;;11.10;99.90;;;;;;4969302;28;20461;-63
2021/05/18 00:43:05;;;;;;;16.98;11.07;;;11.10;99.90;;;;;;4969725;28;20158;-63
2021/05/18 00:45:50;;;;;;;17.45;11.25;;;11.00;99.90;;;;;;4969057;28;20204;-63
2021/05/18 00:48:19;;;;;;;16.48;10.75;;;10.90;99.90;;;;;;4969383;28;20061;-63
2021/05/18 00:50:52;;;;;;;24.58;10.82;;;10.90;99.90;;;;;;4969131;28;20051;-63
2021/05/18 00:53:20;;;;;;;16.52;11.68;;;10.90;99.90;;;;;;4969191;28;20824;-63
2021/05/18 00:58:27;;;;;;;17.38;11.00;;;11.20;99.90;;;;;;4968235;28;20189;-63
2021/05/18 01:01:11;;;;;;;19.92;11.85;;;11.40;99.90;;;;;;4969360;28;20049;-63
2021/05/18 01:03:38;;;;;;;14.30;10.73;;;11.40;99.90;;;;;;4968863;28;20134;-62
2021/05/18 01:06:19;;;;;;;14.07;9.85;;;11.30;99.90;;;;;;4969151;28;20050;-62
2021/05/18 01:08:47;;;;;;;13.32;9.35;;;11.10;99.90;;;;;;4957526;28;20430;-62
2021/05/18 01:11:15;;;;;;;15.07;8.90;;;11.00;99.90;;;;;;4968802;28;20054;-63
2021/05/18 01:13:41;;;;;;;15.27;8.38;;;11.10;99.90;;;;;;4967763;28;20058;-63
2021/05/18 01:16:09;;;;;;;14.18;7.15;;;11.30;99.90;;;;;;4969329;28;20125;-62
2021/05/18 01:18:43;;;;;;;11.88;6.97;;;11.30;99.90;;;;;;4969265;28;20058;-62
2021/05/18 01:21:11;;;;;;;10.73;5.88;;;11.30;99.90;;;;;;4968050;28;20133;-62
2021/05/18 01:23:39;;;;;;;8.48;6.38;;;11.30;99.90;;;;;;4969070;28;20055;-62
2021/05/18 01:26:06;;;;;;;8.10;5.85;;;11.30;99.90;;;;;;4967510;28;20141;-62
2021/05/18 01:28:33;;;;;;;9.95;6.28;;;11.40;99.90;;;;;;4967710;28;20133;-63
2021/05/18 01:31:02;;;;;;;8.55;6.47;;;11.20;99.90;;;;;;4967785;28;20051;-62
2021/05/18 01:33:29;;;;;;;12.57;7.03;;;11.00;99.90;;;;;;4967648;28;20046;-62
2021/05/18 01:35:57;;;;;;;12.48;7.38;;;10.80;99.90;;;;;;4968765;28;20083;-62
2021/05/18 01:38:31;;;;;;;10.40;6.88;;;10.60;99.90;;;;;;4968806;28;20083;-63
2021/05/18 01:43:54;;;;;;;13.65;7.20;;;10.50;99.90;;;;;;4972166;28;20396;-63
2021/05/18 01:46:23;;;;;;;13.10;6.43;;;10.50;99.90;;;;;;4971127;28;20141;-63
2021/05/18 01:49:08;;;;;;;12.25;7.55;;;10.40;99.90;;;;;;4972341;28;20062;-63
2021/05/18 01:51:46;;;;;;;11.57;7.38;;;10.40;99.90;;;;;;4972089;28;20129;-63
2021/05/18 01:54:18;;;;;;;13.68;7.20;;;10.40;99.90;;;;;;4972161;28;20058;-63
2021/05/18 01:59:24;;;;;;;9.13;7.70;;;10.20;99.90;;;;;;4970976;28;20055;-63
2021/05/18 02:01:58;;;;;;;11.43;7.88;;;10.20;99.90;;;;;;4971995;28;20086;-62
2021/05/18 02:04:31;;;;;;;9.95;7.80;;;10.10;99.90;;;;;;4971529;28;20059;-63
2021/05/18 02:07:00;;;;;;;14.82;8.80;;;10.10;99.90;;;;;;4970400;28;20498;-63
2021/05/18 02:09:26;;;;;;;10.77;7.80;;;10.10;99.90;;;;;;4971827;28;20074;-63
2021/05/18 02:11:55;;;;;;;11.27;8.48;;;10.00;99.90;;;;;;4970557;28;20178;-63
2021/05/18 02:14:28;;;;;;;12.13;8.80;;;9.90;99.90;;;;;;4970224;28;20090;-63
2021/05/18 02:17:22;;;;;;;11.65;8.02;;;9.90;99.90;;;;;;4970490;28;20050;-63
2021/05/18 02:25:26;;;;;;;14.48;7.45;;;9.90;99.90;;;;;;4971312;28;20193;-64
2021/05/18 02:28:04;;;;;;;10.38;8.20;;;10.00;99.90;;;;;;4971453;28;20461;-63
2021/05/18 02:30:36;;;;;;;14.75;8.60;;;9.90;99.90;;;;;;4970445;28;20194;-63
2021/05/18 02:33:03;;;;;;;12.52;7.55;;;9.90;99.90;;;;;;4970154;28;20470;-64
2021/05/18 02:35:40;;;;;;;13.45;8.27;;;9.80;99.90;;;;;;4971557;28;20154;-63
2021/05/18 02:38:06;;;;;;;14.50;8.00;;;9.80;99.90;;;;;;4970305;28;20093;-63
2021/05/18 02:40:36;;;;;;;10.85;7.63;;;9.80;99.90;;;;;;4971207;28;20503;-63
2021/05/18 02:43:02;;;;;;;10.68;8.05;;;10.00;99.90;;;;;;4969711;28;20511;-63
2021/05/18 02:45:37;;;;;;;10.05;7.75;;;10.00;99.90;;;;;;4971121;28;20425;-63
2021/05/18 02:50:52;;;;;;;13.07;7.93;;;10.30;99.90;;;;;;4971139;28;20058;-63
2021/05/18 02:53:30;;;;;;;14.48;7.25;;;10.40;99.90;;;;;;4968351;28;20137;-63
2021/05/18 02:58:27;;;;;;;8.75;6.93;;;10.50;99.90;;;;;;4971072;28;20806;-63
2021/05/18 03:00:53;;;;;;;9.35;7.53;;;10.50;99.90;;;;;;4970991;28;20581;-63
2021/05/18 03:03:20;;;;;;;11.57;7.65;;;10.50;99.90;;;;;;4970712;28;20090;-63
2021/05/18 03:05:46;;;;;;;10.43;6.97;;;10.40;99.90;;;;;;4970621;28;20054;-63
2021/05/18 03:08:12;;;;;;;13.07;8.18;;;10.40;99.90;;;;;;4970761;28;20141;-63
2021/05/18 03:10:38;;;;;;;11.90;8.85;;;10.40;99.90;;;;;;4970956;28;20054;-63
2021/05/18 03:13:04;;;;;;;13.70;9.05;;;10.30;99.90;;;;;;4970701;28;20057;-63
2021/05/18 03:15:31;;;;;;;11.70;8.27;;;10.20;99.90;;;;;;4970534;28;20159;-63
2021/05/18 03:18:00;;;;;;;12.73;8.80;;;10.10;99.90;;;;;;4970539;28;20568;-63
2021/05/18 03:20:26;;;;;;;10.00;7.90;;;10.10;99.90;;;;;;4970879;28;20071;-63
2021/05/18 03:22:53;;;;;;;12.73;8.15;;;10.10;99.90;;;;;;4969273;28;20125;-63
2021/05/18 03:25:19;;;;;;;9.55;8.45;;;10.10;99.90;;;;;;4970457;28;20046;-63
2021/05/18 03:27:45;;;;;;;11.73;8.90;;;10.20;99.90;;;;;;4969810;28;20521;-63
2021/05/18 03:35:42;;;;;;;11.40;8.95;;;10.20;99.90;;;;;;4970262;28;20596;-63
2021/05/18 03:38:24;;;;;;;16.08;9.00;;;10.20;99.90;;;;;;4970281;28;20062;-62
2021/05/18 03:40:57;;;;;;;11.75;8.63;;;10.30;99.90;;;;;;4969993;28;20122;-63
2021/05/18 03:48:57;;;;;;;13.43;8.70;;;10.50;99.90;;;;;;4969781;28;20047;-63
2021/05/18 03:54:22;;;;;;;12.55;9.63;;;10.70;99.90;;;;;;4970155;28;20050;-63
2021/05/18 04:05:12;;;;;;;12.40;9.32;;;11.20;99.90;;;;;;4969259;28;20046;-63
2021/05/18 05:01:17;;;;;;;16.45;10.73;;;12.50;99.90;;;;;;4968997;28;20047;-63
2021/05/18 05:04:05;;;;;;;18.65;11.45;;;12.60;99.90;;;;;;4968381;28;20621;-62
2021/05/18 05:16:41;;;;;;;17.05;10.95;;;13.10;99.90;;;;;;4957722;28;20497;-64
2021/05/18 05:19:07;;;;;;;31.13;11.23;;;13.20;99.90;;;;;;4970969;28;20051;-63
2021/05/18 05:21:33;;;;;;;24.52;12.18;;;13.40;99.90;;;;;;4972045;28;20154;-63
2021/05/18 05:23:59;;;;;;;18.35;11.35;;;13.60;99.90;;;;;;4971626;28;20133;-63
2021/05/18 05:26:26;;;;;;;17.98;11.68;;;13.70;99.90;;;;;;4972302;28;20050;-62
2021/05/18 05:28:53;;;;;;;20.17;10.90;;;13.80;99.90;;;;;;4972395;28;20181;-62
2021/05/18 05:31:18;;;;;;;14.70;11.50;;;14.10;99.90;;;;;;4971222;28;20134;-62
2021/05/18 05:33:44;;;;;;;24.33;11.05;;;14.20;99.90;;;;;;4971266;28;20087;-62
2021/05/18 05:36:11;;;;;;;16.00;12.20;;;14.30;99.90;;;;;;4972332;28;20130;-62
2021/05/18 05:38:38;;;;;;;18.75;10.52;;;14.50;99.90;;;;;;4971689;28;20542;-66
2021/05/18 05:41:04;;;;;;;11.27;9.90;;;14.70;99.90;;;;;;4972184;28;20494;-65
2021/05/18 05:43:30;;;;;;;11.52;9.98;;;15.00;99.90;;;;;;4972123;28;20129;-64
2021/05/18 05:45:56;;;;;;;18.25;10.60;;;15.10;99.90;;;;;;4959199;28;20054;-66
2021/05/18 05:48:22;;;;;;;11.55;10.35;;;15.30;99.90;;;;;;4971953;28;20495;-66
2021/05/18 05:50:48;;;;;;;16.40;10.40;;;15.60;99.90;;;;;;4971726;28;20134;-66
2021/05/18 05:53:15;;;;;;;20.80;10.30;;;15.90;99.90;;;;;;4972071;28;20038;-67
2021/05/18 05:55:41;;;;;;;14.43;10.68;;;16.10;99.90;;;;;;4970243;28;20066;-66
2021/05/18 05:58:08;;;;;;;13.75;9.23;;;16.40;99.90;;;;;;4971906;28;20170;-67
2021/05/18 06:00:34;;;;;;;13.50;9.77;;;16.60;99.90;;;;;;4971945;28;20129;-67
2021/05/18 06:03:00;;;;;;;15.60;10.82;;;17.20;99.90;;;;;;4971256;28;20503;-66
2021/05/18 06:05:26;;;;;;;18.85;10.35;;;17.90;99.90;;;;;;4971815;28;20419;-66
2021/05/18 06:07:55;;;;;;;13.18;10.07;;;18.60;99.90;;;;;;4971678;28;20062;-66
2021/05/18 06:10:31;;;;;;;19.98;10.60;;;19.10;99.90;;;;;;4971759;28;20061;-66
2021/05/18 06:13:30;;;;;;;16.88;11.10;;;19.40;99.90;;;;;;4971403;28;20055;-66
2021/05/18 06:48:05;;;;;;;25.58;14.32;;;29.90;82.00;;;;;;4969176;28;20129;-71
2021/05/18 06:50:32;;;;;;;22.00;16.33;;;30.90;77.30;;;;;;4970924;28;20701;-71
2021/05/18 06:52:59;;;;;;;18.77;16.83;;;31.40;73.90;;;;;;4970094;28;20061;-70
2021/05/18 06:55:28;;;;;;;21.13;17.50;;;31.10;71.70;;;;;;4970870;28;20047;-70
2021/05/18 06:58:13;;;;;;;18.73;16.77;;;30.60;71.30;;;;;;4973209;28;20425;-72
2021/05/18 07:00:42;;;;;;;19.35;16.67;;;30.00;72.20;;;;;;4957963;28;20046;-74
2021/05/18 07:03:12;;;;;;;40.58;16.80;;;30.50;70.80;;;;;;4953111;28;20443;-75
2021/05/18 07:05:48;;;;;;;26.70;16.42;;;32.40;68.40;;;;;;4969182;28;20062;-70
2021/05/18 07:10:45;;;;;;;19.30;17.13;;;32.90;66.90;;;;;;4970585;28;20113;-71
2021/05/18 07:13:12;;;;;;;29.08;17.65;;;32.40;66.80;;;;;;4969935;28;20455;-72
2021/05/18 07:15:39;;;;;;;28.92;18.65;;;31.50;68.00;;;;;;4970752;28;20089;-74
2021/05/18 07:18:06;;;;;;;19.48;17.58;;;31.10;68.50;;;;;;4971930;28;20506;-71
2021/05/18 07:20:32;;;;;;;18.75;16.75;;;30.60;67.60;;;;;;4978851;28;20065;-72
2021/05/18 07:23:02;;;;;;;19.67;17.48;;;30.60;67.10;;;;;;4970190;28;20244;-72
2021/05/18 07:25:28;;;;;;;19.42;17.52;;;30.30;67.70;;;;;;4967443;28;20050;-70
2021/05/18 07:27:54;;;;;;;23.60;17.35;;;30.40;67.40;;;;;;4967896;28;20053;-71
2021/05/18 07:30:20;;;;;;;17.35;15.35;;;30.60;67.50;;;;;;4968718;28;20057;-70
2021/05/18 07:32:46;;;;;;;16.63;14.32;;;30.30;67.00;;;;;;4968650;28;20059;-71
2021/05/18 07:35:13;;;;;;;14.63;12.90;;;30.10;66.80;;;;;;4977041;28;20046;-70
2021/05/18 07:37:39;;;;;;;31.90;14.60;;;29.60;68.10;;;;;;4970160;28;20178;-70
2021/05/18 07:40:07;;;;;;;15.82;12.98;;;29.30;69.60;;;;;;4969507;28;20134;-71
2021/05/18 07:42:33;;;;;;;12.32;11.13;;;29.00;70.70;;;;;;4969768;28;20561;-70
2021/05/18 07:45:00;;;;;;;11.30;10.23;;;28.80;70.70;;;;;;4969683;28;20205;-68
2021/05/18 07:47:34;;;;;;;14.32;11.07;;;28.50;71.00;;;;;;4969488;28;20059;-69
2021/05/18 07:50:19;;;;;;;15.32;11.70;;;28.70;70.70;;;;;;4968327;28;20130;-71
2021/05/18 08:01:15;;;;;;;16.27;11.48;;;28.30;70.50;;;;;;4967612;28;20055;-69
2021/05/18 08:06:33;;;;;;;13.75;12.23;;;28.70;69.90;;;;;;4957786;28;20062;-77
2021/05/18 08:08:59;;;;;;;15.98;12.35;;;28.40;71.00;;;;;;4969608;28;20047;-70
2021/05/18 08:11:25;;;;;;;28.30;13.68;;;28.60;71.30;;;;;;4969409;28;20106;-67
2021/05/18 08:13:56;;;;;;;15.10;13.65;;;28.60;70.40;;;;;;4968067;28;20137;-70
2021/05/18 09:35:40;;;;;;;15.02;13.50;;;30.70;66.50;;;;;;4972257;28;20134;-70
2021/05/18 09:49:26;;;;;;;13.10;11.02;;;31.70;63.90;;;;;;4969744;28;20086;-70
2021/05/18 10:22:12;;;;;;;12.57;9.68;;;33.00;60.00;;;;;;4971057;28;20482;-72
2021/05/18 10:35:42;;;;;;;17.92;10.50;;;27.90;67.30;;;;;;4971294;28;20105;-71
2021/05/18 10:38:11;;;;;;;11.13;9.63;;;27.30;68.70;;;;;;4970568;28;20046;-66
2021/05/18 10:40:40;;;;;;;10.07;8.45;;;27.30;71.40;;;;;;4980869;28;20170;-66
2021/05/18 10:43:26;;;;;;;13.30;8.77;;;27.50;73.60;;;;;;4970129;28;20152;-67
2021/05/18 10:45:56;;;;;;;10.13;9.27;;;27.20;77.00;;;;;;4970770;28;20160;-68
2021/05/18 10:48:31;;;;;;;19.90;11.55;;;26.50;77.20;;;;;;4970775;28;20054;-67
2021/05/18 10:50:58;;;;;;;14.75;13.27;;;26.30;75.80;;;;;;4970734;28;20474;-66
2021/05/18 10:53:27;;;;;;;18.17;15.68;;;26.20;76.00;;;;;;4969315;28;20054;-66
2021/05/18 10:56:10;;;;;;;17.95;15.30;;;26.10;76.80;;;;;;4970728;28;20069;-65
2021/05/18 10:58:39;;;;;;;15.55;14.13;;;25.90;82.30;;;;;;4970411;28;20573;-70
2021/05/18 11:01:05;;;;;;;16.23;14.73;;;25.70;82.80;;;;;;4971192;28;20782;-69
2021/05/18 11:03:34;;;;;;;16.48;15.07;;;25.10;84.70;;;;;;4970453;28;20085;-68
2021/05/18 11:06:08;;;;;;;14.85;13.35;;;24.70;89.00;;;;;;4969090;28;20137;-69
2021/05/18 11:08:35;;;;;;;18.65;13.00;;;24.30;86.60;;;;;;4970542;28;20051;-69
2021/05/18 11:11:02;;;;;;;14.25;10.95;;;24.20;87.70;;;;;;4953021;28;20061;-67
2021/05/18 11:13:30;;;;;;;12.30;11.35;;;24.00;85.90;;;;;;4969335;28;20469;-67
2021/05/18 11:15:57;;;;;;;10.27;9.50;;;23.80;86.70;;;;;;4970320;28;20519;-65
2021/05/18 11:18:30;;;;;;;11.05;10.15;;;23.60;86.40;;;;;;4967848;28;20503;-67
2021/05/18 11:20:59;;;;;;;12.98;10.88;;;23.60;86.70;;;;;;4967217;28;20050;-67
2021/05/18 11:23:31;;;;;;;10.55;9.77;;;23.50;85.90;;;;;;4968594;28;20123;-67
2021/05/18 11:26:07;;;;;;;10.18;9.15;;;23.60;86.00;;;;;;4964359;28;20061;-70
2021/05/18 11:28:39;;;;;;;16.70;8.70;;;23.60;85.90;;;;;;4964523;28;20129;-71
2021/05/18 11:31:09;;;;;;;;;;;23.50;87.90;;;;;;4969021;28;20057;-70
2021/05/18 11:33:42;;;;;;;19.00;11.32;;;23.30;87.10;;;;;;4969622;28;19976;-68
2021/05/18 11:36:11;;;;;;;13.18;12.10;;;23.20;88.90;;;;;;4953663;28;20057;-70
2021/05/18 11:38:39;;;;;;;14.00;12.55;;;23.20;88.90;;;;;;4953040;28;20146;-67
2021/05/18 11:41:06;;;;;;;13.98;12.57;;;22.70;90.10;;;;;;4966579;28;20106;-66
2021/05/18 11:43:39;;;;;;;15.07;13.55;;;22.30;91.20;;;;;;4959362;28;20058;-67
2021/05/18 11:46:13;;;;;;;20.40;15.07;;;22.10;92.00;;;;;;4952459;28;20578;-70
2021/05/18 11:49:03;;;;;;;16.58;14.95;;;21.80;93.20;;;;;;4954326;28;20057;-67
2021/05/18 11:51:56;;;;;;;18.42;14.80;;;21.50;93.40;;;;;;4953290;28;20146;-68
2021/05/18 11:54:23;;;;;;;;;;;21.30;93.60;;;;;;4954025;28;20144;-65
2021/05/18 11:56:51;;;;;;;11.98;9.07;;;20.80;94.00;;;;;;4955418;28;19961;-65
2021/05/18 11:59:22;;;;;;;11.70;10.40;;;20.40;94.20;;;;;;4956884;28;20067;-65
2021/05/18 12:02:01;;;;;;;12.32;8.75;;;20.30;95.20;;;;;;4966549;28;20094;-65
2021/05/18 12:04:29;;;;;;;7.20;6.60;;;19.90;97.10;;;;;;4953358;28;20428;-65
2021/05/18 12:06:57;;;;;;;9.20;7.07;;;19.70;96.30;;;;;;4957637;28;20047;-66
2021/05/18 12:09:24;;;;;;;6.82;6.28;;;19.60;96.20;;;;;;4953459;28;20074;-65
2021/05/18 12:12:00;;;;;;;7.35;6.80;;;19.60;95.80;;;;;;4958513;28;20082;-66
2021/05/18 12:14:27;;;;;;;8.15;7.35;;;19.50;96.20;;;;;;4966016;28;20055;-65
2021/05/18 12:16:54;;;;;;;9.45;8.50;;;19.50;96.40;;;;;;4958310;28;20082;-65
2021/05/18 12:19:21;;;;;;;11.35;10.23;;;19.40;97.30;;;;;;4955720;28;20051;-65
2021/05/18 12:21:50;;;;;;;13.05;12.00;;;19.30;98.60;;;;;;4957945;28;20047;-65
2021/05/18 12:24:25;;;;;;;20.17;14.25;;;19.20;99.30;;;;;;4956805;28;20189;-66
2021/05/18 12:26:59;;;;;;;17.42;14.43;;;19.00;99.90;;;;;;4956166;28;20395;-65
2021/05/18 12:29:28;;;;;;;16.55;14.80;;;19.00;99.90;;;;;;4959496;28;20086;-65
2021/05/18 12:31:54;;;;;;;16.23;14.60;;;19.10;99.90;;;;;;4955166;28;20109;-65
2021/05/18 12:34:28;;;;;;;17.00;15.23;;;19.00;99.90;;;;;;4958466;28;20053;-65
2021/05/18 12:36:55;;;;;;;18.60;16.25;;;18.90;99.90;;;;;;4954862;28;20149;-68
2021/05/18 12:39:22;;;;;;;17.90;16.02;;;19.00;99.90;;;;;;4959010;28;20097;-67
2021/05/18 12:41:56;;;;;;;23.85;15.30;;;18.90;99.90;;;;;;4963823;28;20700;-67
2021/05/18 12:44:32;;;;;;;22.08;15.10;;;18.90;99.90;;;;;;4955017;28;20157;-69
2021/05/18 12:47:04;;;;;;;18.48;13.73;;;18.90;99.90;;;;;;4945543;28;20102;-68
2021/05/18 12:49:30;;;;;;;27.83;14.45;;;18.80;99.90;;;;;;4964527;28;20134;-67
2021/05/18 12:52:12;;;;;;;21.50;13.50;;;18.70;99.90;;;;;;4957305;28;20139;-66
2021/05/18 12:54:47;;;;;;;17.20;12.98;;;18.80;99.90;;;;;;4965566;28;20082;-66
2021/05/18 12:57:16;;;;;;;14.13;12.88;;;18.80;99.90;;;;;;4960617;28;20418;-67
2021/05/18 13:00:07;;;;;;;14.82;12.23;;;18.90;99.90;;;;;;4960886;28;20887;-67
2021/05/18 13:02:42;;;;;;;15.38;11.48;;;18.90;99.90;;;;;;4957684;28;20077;-68
2021/05/18 13:05:16;;;;;;;12.88;10.63;;;18.90;99.90;;;;;;4967716;28;20078;-65
2021/05/18 13:08:02;;;;;;;24.63;10.98;;;19.00;99.90;;;;;;4968854;28;20053;-63
2021/05/18 13:10:38;;;;;;;13.52;8.90;;;19.00;99.90;;;;;;4967528;28;20474;-63
2021/05/18 13:13:04;;;;;;;12.75;8.50;;;19.10;99.90;;;;;;4967356;28;20129;-70
2021/05/18 13:15:30;;;;;;;15.68;8.15;;;19.00;99.90;;;;;;4968672;28;20141;-69
2021/05/18 13:17:58;;;;;;;11.02;6.53;;;19.10;99.90;;;;;;4951310;28;20054;-69
2021/05/18 13:20:34;;;;;;;16.52;6.88;;;19.20;99.90;;;;;;4968725;28;20057;-70
2021/05/18 13:23:01;;;;;;;14.57;7.13;;;19.40;99.90;;;;;;4951411;28;20070;-67
2021/05/18 13:28:19;;;;;;;10.55;5.25;;;19.70;99.70;;;;;;4957299;28;20178;-72
2021/05/18 13:30:46;;;;;;;8.30;6.35;;;19.70;99.50;;;;;;4968633;28;20635;-68
2021/05/18 13:33:12;;;;;;;8.50;5.93;;;19.90;99.30;;;;;;4967539;28;20050;-69
2021/05/18 13:35:38;;;;;;;5.82;5.32;;;19.70;99.00;;;;;;4967329;28;20066;-70
2021/05/18 13:38:05;;;;;;;18.23;6.65;;;19.70;98.90;;;;;;4969795;28;20054;-67
2021/05/18 13:40:31;;;;;;;8.25;5.82;;;19.70;99.00;;;;;;4970745;28;20053;-67
2021/05/18 13:42:58;;;;;;;5.70;5.25;;;19.80;99.00;;;;;;4970593;28;20183;-68
2021/05/18 13:45:25;;;;;;;14.35;4.97;;;19.90;99.00;;;;;;4971971;28;20050;-68
2021/05/18 13:47:58;;;;;;;10.13;5.00;;;19.70;98.70;;;;;;4970763;28;20078;-66
2021/05/18 13:50:27;;;;;;;;;;;19.70;98.90;;;;;;4970733;28;20110;-66
2021/05/18 13:52:55;;;;;;;16.33;5.38;;;19.70;98.90;;;;;;4971748;28;20406;-67
2021/05/18 13:55:22;;;;;;;5.28;4.78;;;19.70;99.00;;;;;;4968135;28;20422;-66
2021/05/18 13:57:50;;;;;;;6.75;5.40;;;19.70;98.70;;;;;;4970379;28;20089;-65
2021/05/18 14:00:18;;;;;;;13.75;5.57;;;19.50;98.20;;;;;;4970569;28;20113;-63
2021/05/18 14:02:47;;;;;;;14.95;5.88;;;19.40;98.60;;;;;;4971538;28;20055;-68
2021/05/18 14:05:16;;;;;;;7.65;6.97;;;19.40;98.80;;;;;;4971376;28;20098;-68
2021/05/18 14:10:52;;;;;;;13.23;12.07;;;19.00;99.90;;;;;;4971618;28;20133;-67
2021/05/18 14:13:18;;;;;;;14.40;12.98;;;18.90;99.90;;;;;;4971158;28;20097;-66
2021/05/18 14:15:44;;;;;;;19.58;13.00;;;18.80;99.90;;;;;;4970928;28;20046;-64
2021/05/18 14:18:12;;;;;;;16.83;12.55;;;18.80;99.90;;;;;;4969983;28;20138;-65
2021/05/18 14:20:38;;;;;;;20.60;12.93;;;18.70;99.90;;;;;;4971444;28;20046;-65
2021/05/18 14:23:05;;;;;;;15.57;13.68;;;18.90;99.90;;;;;;4971320;28;20118;-64
2021/05/18 14:25:31;;;;;;;15.20;13.77;;;19.10;99.90;;;;;;4971147;28;20538;-64
2021/05/18 14:27:57;;;;;;;11.88;10.98;;;19.20;99.30;;;;;;4971220;28;20055;-65
2021/05/18 14:30:23;;;;;;;11.52;10.43;;;19.60;99.10;;;;;;4970801;28;20053;-64
2021/05/18 14:32:50;;;;;;;16.65;9.00;;;20.00;98.20;;;;;;4971043;28;20144;-65
2021/05/18 14:35:16;;;;;;;16.90;9.50;;;20.30;97.30;;;;;;4969891;28;20047;-65
2021/05/18 14:37:48;;;;;;;10.80;7.43;;;20.70;97.20;;;;;;4970738;28;20061;-63
2021/05/18 14:42:52;;;;;;;11.45;6.72;;;21.10;95.70;;;;;;4970129;28;20145;-64
2021/05/18 14:45:23;;;;;;;12.85;6.45;;;20.90;95.80;;;;;;4970795;28;20145;-65
2021/05/18 14:56:02;;;;;;;4.75;4.28;;;20.40;96.20;;;;;;4970472;28;20078;-64
2021/05/18 14:58:28;;;;;;;5.85;4.57;;;20.20;96.30;;;;;;4970629;28;20047;-64
2021/05/18 15:00:54;;;;;;;9.40;4.90;;;20.20;96.80;;;;;;4970660;28;20159;-66
2021/05/18 15:03:20;;;;;;;5.78;4.43;;;20.00;97.70;;;;;;4970343;28;20097;-66
2021/05/18 15:05:46;;;;;;;8.85;5.38;;;19.70;98.50;;;;;;4970374;28;20137;-68
2021/05/18 15:08:12;;;;;;;6.18;5.57;;;19.50;99.10;;;;;;4970517;28;20071;-68
2021/05/18 15:10:40;;;;;;;13.57;5.50;;;19.30;99.30;;;;;;4969357;28;20133;-68
2021/05/18 15:13:06;;;;;;;6.50;6.00;;;19.20;99.70;;;;;;4970346;28;20047;-71
2021/05/18 15:15:32;;;;;;;7.30;5.90;;;19.00;99.80;;;;;;4970347;28;20495;-66
2021/05/18 15:17:59;;;;;;;7.38;6.05;;;18.80;99.90;;;;;;4968336;28;20654;-69
2021/05/18 15:20:26;;;;;;;7.85;6.22;;;18.70;99.90;;;;;;4969033;28;20047;-68
2021/05/18 15:22:52;;;;;;;6.70;6.07;;;18.60;99.90;;;;;;4970266;28;20404;-70
2021/05/18 15:25:21;;;;;;;7.55;6.90;;;18.50;99.90;;;;;;4970254;28;20137;-68
2021/05/18 15:27:47;;;;;;;8.93;7.35;;;18.30;99.90;;;;;;4952806;28;20138;-68
2021/05/18 15:30:14;;;;;;;10.75;7.45;;;18.20;99.90;;;;;;4968933;28;20174;-68
2021/05/18 15:32:40;;;;;;;7.47;6.75;;;18.10;99.90;;;;;;4970174;28;20129;-69
2021/05/18 15:35:07;;;;;;;11.02;7.70;;;17.70;99.90;;;;;;4969936;28;20047;-70
2021/05/18 15:37:35;;;;;;;8.20;7.40;;;17.60;99.90;;;;;;4969729;28;20050;-66
2021/05/18 15:40:02;;;;;;;12.05;7.20;;;17.50;99.90;;;;;;4976445;28;20065;-70
2021/05/18 15:42:28;;;;;;;8.50;7.18;;;17.40;99.90;;;;;;4970104;28;20051;-72
2021/05/18 15:44:54;;;;;;;15.23;7.95;;;17.40;99.90;;;;;;4960955;28;20054;-74
2021/05/18 15:47:22;;;;;;;10.70;7.88;;;17.30;99.90;;;;;;4968885;28;20137;-73
2021/05/18 15:49:48;;;;;;;10.52;7.95;;;17.20;99.90;;;;;;4952388;28;20050;-72
2021/05/18 15:52:15;;;;;;;11.80;8.40;;;17.10;99.90;;;;;;4952199;28;20050;-77
2021/05/18 15:54:41;;;;;;;8.85;8.05;;;17.10;99.90;;;;;;4968793;28;20129;-76
2021/05/18 15:57:07;;;;;;;8.85;7.63;;;17.10;99.90;;;;;;4952383;28;20145;-71
2021/05/18 15:59:33;;;;;;;9.13;7.63;;;17.00;99.90;;;;;;4952124;28;20047;-68
2021/05/18 16:02:00;;;;;;;9.95;7.93;;;16.80;99.90;;;;;;4969471;28;20097;-68
2021/05/18 16:04:26;;;;;;;9.38;7.82;;;16.80;99.90;;;;;;4952152;28;20053;-65
2021/05/18 16:06:52;;;;;;;9.95;7.90;;;16.70;99.90;;;;;;4962796;28;20511;-64
2021/05/18 16:09:18;;;;;;;14.98;8.63;;;16.70;99.90;;;;;;4962023;28;20051;-65
2021/05/18 16:11:44;;;;;;;12.63;7.68;;;16.70;99.90;;;;;;4968688;28;20051;-68
2021/05/18 16:14:11;;;;;;;9.73;7.55;;;16.70;99.90;;;;;;4969311;28;20133;-68
2021/05/18 16:16:37;;;;;;;10.70;7.85;;;16.70;99.90;;;;;;4968143;28;20522;-67
2021/05/18 16:19:03;;;;;;;10.00;8.18;;;16.60;99.90;;;;;;4966166;28;20061;-65
2021/05/18 16:21:30;;;;;;;8.57;7.72;;;16.60;99.90;;;;;;4967212;28;20046;-67
2021/05/18 16:23:57;;;;;;;13.25;8.63;;;16.60;99.90;;;;;;4966596;28;20145;-67
2021/05/18 16:26:29;;;;;;;13.02;8.88;;;16.50;99.90;;;;;;4967416;28;20074;-66
2021/05/18 16:28:57;;;;;;;9.07;8.27;;;16.40;99.90;;;;;;4966432;28;20046;-67
2021/05/18 16:31:24;;;;;;;14.52;8.23;;;16.40;99.90;;;;;;4965532;28;20129;-65
2021/05/18 16:33:50;;;;;;;10.25;8.73;;;16.40;99.90;;;;;;4967151;28;20475;-63
2021/05/18 16:36:17;;;;;;;12.60;9.20;;;16.40;99.90;;;;;;4978450;28;20110;-65
2021/05/18 16:38:47;;;;;;;11.68;8.70;;;16.40;99.90;;;;;;4966714;28;20065;-66
2021/05/18 16:41:13;;;;;;;9.35;8.50;;;16.40;99.90;;;;;;4966876;28;20051;-66
2021/05/18 16:43:39;;;;;;;13.90;9.52;;;16.40;99.90;;;;;;4965939;28;20050;-68
2021/05/18 16:46:07;;;;;;;12.32;8.82;;;16.30;99.90;;;;;;4966809;28;20162;-71
2021/05/18 16:48:33;;;;;;;16.05;8.23;;;16.30;99.90;;;;;;4966718;28;20062;-65
2021/05/18 16:51:02;;;;;;;11.55;8.90;;;16.30;99.90;;;;;;4965033;28;20047;-65
2021/05/18 16:53:29;;;;;;;17.13;8.63;;;16.30;99.90;;;;;;4961546;28;20646;-65
2021/05/18 16:55:55;;;;;;;12.48;9.20;;;16.20;99.90;;;;;;4965150;28;20047;-68
2021/05/18 16:58:21;;;;;;;10.23;8.93;;;16.10;99.90;;;;;;4966630;28;20057;-69
2021/05/18 17:00:47;;;;;;;11.68;9.57;;;16.10;99.90;;;;;;4965001;28;20059;-69
2021/05/18 17:03:14;;;;;;;10.93;9.82;;;16.10;99.90;;;;;;4965268;28;20083;-68
2021/05/18 17:05:41;;;;;;;13.32;10.35;;;15.90;99.90;;;;;;4966447;28;20130;-68
2021/05/18 17:08:08;;;;;;;12.63;9.93;;;15.80;99.90;;;;;;4960527;28;20094;-67
2021/05/18 17:10:37;;;;;;;10.85;9.75;;;15.80;99.90;;;;;;4966416;28;20267;-67
2021/05/18 17:13:04;;;;;;;12.65;9.38;;;15.70;99.90;;;;;;4968705;28;20061;-67
2021/05/18 17:15:30;;;;;;;11.38;9.13;;;15.70;99.90;;;;;;4968374;28;20148;-67
2021/05/18 17:17:57;;;;;;;11.05;9.88;;;15.70;99.90;;;;;;4968256;28;20043;-67
2021/05/18 17:20:27;;;;;;;11.35;9.25;;;15.60;99.90;;;;;;4969918;28;20116;-67
2021/05/18 17:22:53;;;;;;;13.27;11.27;;;15.50;99.90;;;;;;4970154;28;20098;-67
2021/05/18 17:25:20;;;;;;;14.52;11.07;;;15.50;99.90;;;;;;4965614;28;20129;-67
2021/05/18 17:27:46;;;;;;;21.15;10.32;;;15.50;99.90;;;;;;4970190;28;20055;-66
2021/05/18 17:30:17;;;;;;;10.80;9.70;;;15.30;99.90;;;;;;4972959;28;20582;-69
2021/05/18 17:32:43;;;;;;;16.58;11.13;;;15.30;99.90;;;;;;4968877;28;20051;-69
2021/05/18 17:35:10;;;;;;;14.43;10.32;;;15.20;99.90;;;;;;4968693;28;20624;-70
2021/05/18 17:37:39;;;;;;;13.25;9.75;;;15.10;99.90;;;;;;4968820;28;20141;-70
2021/05/18 17:40:06;;;;;;;16.92;11.63;;;15.10;99.90;;;;;;4970051;28;20077;-69
2021/05/18 17:42:32;;;;;;;13.90;11.35;;;15.10;99.90;;;;;;4969906;28;20573;-67
2021/05/18 17:45:02;;;;;;;13.30;11.40;;;15.00;99.90;;;;;;4970793;28;20130;-64
2021/05/18 17:47:29;;;;;;;15.40;11.65;;;15.00;99.90;;;;;;4971826;28;20051;-65